Time;durP1;ratioP1;P1;durP2;ratioP2;P2;SDS_P1;SDS_P2;PMS_P1;PMS_P2;Temp;Humidity;BMP_temperature;BMP_pressure;BME280_temperature;BME280_humidity;BME280_pressure;Samples;Min_cycle;Max_cycle;Signal;HPM_P1;HPM_P2
2023/03/11 00:01:20;;;;;;;3.47;2.70;;;22.50;64.40;;;;;;6085931;28;90121;-70
2023/03/11 00:04:24;;;;;;;3.20;2.50;;;22.50;64.10;;;;;;6080461;28;89440;-70
2023/03/11 00:07:26;;;;;;;4.38;2.70;;;22.50;63.80;;;;;;6085215;28;89348;-70
2023/03/11 00:10:30;;;;;;;3.63;2.30;;;22.50;63.60;;;;;;6079604;28;87941;-70
2023/03/11 00:13:32;;;;;;;4.38;2.65;;;22.50;63.50;;;;;;6077638;28;89175;-69
2023/03/11 00:16:34;;;;;;;3.47;2.78;;;22.40;63.00;;;;;;6084390;28;89092;-70
2023/03/11 00:19:38;;;;;;;4.18;2.80;;;22.40;62.90;;;;;;6085689;28;89131;-71
2023/03/11 00:22:40;;;;;;;3.72;2.33;;;22.40;63.20;;;;;;6084619;28;88447;-70
2023/03/11 00:25:44;;;;;;;2.88;2.40;;;22.40;62.80;;;;;;6075261;28;88308;-70
2023/03/11 00:28:47;;;;;;;3.67;2.70;;;22.40;62.80;;;;;;6085252;28;89108;-70
2023/03/11 00:31:49;;;;;;;2.40;2.20;;;22.40;62.60;;;;;;6072597;28;90101;-70
2023/03/11 00:34:52;;;;;;;5.00;3.05;;;22.40;62.30;;;;;;6084720;28;89143;-70
2023/03/11 00:37:57;;;;;;;4.18;2.78;;;22.40;62.30;;;;;;6083728;28;89230;-70
2023/03/11 00:41:00;;;;;;;3.13;2.28;;;22.40;62.10;;;;;;6073592;28;89060;-70
2023/03/11 00:44:02;;;;;;;3.33;2.55;;;22.30;62.00;;;;;;6084568;28;88938;-70
2023/03/11 00:47:05;;;;;;;2.28;2.08;;;22.30;61.80;;;;;;6084543;28;91407;-70
2023/03/11 00:50:11;;;;;;;2.78;2.50;;;22.30;61.90;;;;;;6086321;28;89118;-70
2023/03/11 00:53:13;;;;;;;2.75;2.33;;;22.30;61.60;;;;;;6084013;28;88438;-70
2023/03/11 00:56:16;;;;;;;2.65;2.15;;;22.30;61.80;;;;;;6084001;28;89261;-70
2023/03/11 00:59:18;;;;;;;3.55;2.53;;;22.30;61.80;;;;;;6083656;28;88942;-70
2023/03/11 01:02:20;;;;;;;2.47;2.05;;;22.30;61.90;;;;;;6084616;28;89936;-70
2023/03/11 01:05:26;;;;;;;2.97;2.25;;;22.30;61.70;;;;;;6076335;28;87937;-70
2023/03/11 01:08:30;;;;;;;2.58;2.30;;;22.30;61.50;;;;;;6078715;28;89071;-70
2023/03/11 01:11:32;;;;;;;3.10;2.28;;;22.30;61.60;;;;;;6071616;28;89276;-70
2023/03/11 01:14:34;;;;;;;3.67;2.88;;;22.30;61.60;;;;;;6070228;28;89098;-70
2023/03/11 01:17:36;;;;;;;2.53;2.20;;;22.30;61.40;;;;;;6081966;28;89176;-70
2023/03/11 01:20:40;;;;;;;2.45;2.10;;;22.30;61.50;;;;;;6082914;28;89369;-70
2023/03/11 01:23:42;;;;;;;4.10;2.28;;;22.20;61.50;;;;;;6084183;28;87717;-70
2023/03/11 01:26:45;;;;;;;3.05;2.20;;;22.20;61.50;;;;;;6084436;28;89180;-70
2023/03/11 01:29:47;;;;;;;2.50;1.90;;;22.20;61.50;;;;;;6084160;28;87802;-69
2023/03/11 01:32:49;;;;;;;2.33;1.90;;;22.20;61.40;;;;;;6083646;28;89988;-70
2023/03/11 01:35:53;;;;;;;1.95;1.85;;;22.20;62.40;;;;;;6073453;28;89177;-69
2023/03/11 01:38:55;;;;;;;2.20;1.90;;;22.20;61.40;;;;;;6071863;28;89004;-70
2023/03/11 01:41:57;;;;;;;2.35;1.85;;;22.20;61.40;;;;;;6074336;28;89110;-70
2023/03/11 01:44:59;;;;;;;2.15;1.88;;;22.20;61.10;;;;;;6078006;28;87128;-70
2023/03/11 01:48:01;;;;;;;2.50;1.98;;;22.20;61.10;;;;;;6084110;28;89162;-69
2023/03/11 01:51:05;;;;;;;3.40;1.80;;;22.20;61.10;;;;;;6075598;28;89176;-70
2023/03/11 01:54:10;;;;;;;2.10;1.90;;;22.20;60.90;;;;;;6082441;28;88411;-70
2023/03/11 01:57:14;;;;;;;3.30;1.95;;;22.20;60.90;;;;;;6075966;28;89127;-70
2023/03/11 02:00:17;;;;;;;2.15;1.83;;;22.10;60.80;;;;;;6083439;28;89092;-70
2023/03/11 02:03:24;;;;;;;1.65;1.55;;;22.20;61.00;;;;;;6083464;28;89955;-69
2023/03/11 02:06:28;;;;;;;1.90;1.70;;;22.10;61.00;;;;;;6081574;28;88006;-70
2023/03/11 02:09:30;;;;;;;1.95;1.50;;;22.10;61.10;;;;;;6074369;28;89173;-70
2023/03/11 02:12:35;;;;;;;2.75;1.70;;;22.10;61.80;;;;;;6083161;28;89082;-70
2023/03/11 02:15:38;;;;;;;1.95;1.40;;;22.10;61.00;;;;;;6077172;28;89413;-70
2023/03/11 02:18:40;;;;;;;2.97;1.52;;;22.10;60.30;;;;;;6071207;28;89055;-70
2023/03/11 02:21:44;;;;;;;4.18;2.03;;;22.10;59.90;;;;;;6083398;28;88197;-70
2023/03/11 02:24:54;;;;;;;1.80;1.50;;;22.10;60.60;;;;;;6084698;28;88693;-70
2023/03/11 02:27:58;;;;;;;1.73;1.52;;;22.10;61.30;;;;;;6075772;28;89091;-70
2023/03/11 02:31:01;;;;;;;3.05;1.90;;;22.10;61.80;;;;;;6083341;28;89154;-70
2023/03/11 02:34:04;;;;;;;2.13;1.63;;;22.10;62.10;;;;;;6082946;28;90047;-71
2023/03/11 02:37:08;;;;;;;2.35;1.40;;;22.10;62.30;;;;;;6079879;28;89201;-70
2023/03/11 02:40:55;;;;;;;2.42;1.92;;;22.10;62.50;;;;;;6082709;28;89171;-70
2023/03/11 02:43:59;;;;;;;1.70;1.55;;;22.00;62.70;;;;;;6072275;28;89140;-70
2023/03/11 02:47:02;;;;;;;1.77;1.48;;;22.00;62.90;;;;;;6087630;28;89438;-70
2023/03/11 02:50:05;;;;;;;2.90;1.63;;;22.00;63.00;;;;;;6078345;28;89187;-70
2023/03/11 02:53:07;;;;;;;2.40;1.58;;;22.00;63.00;;;;;;6086211;28;89049;-71
2023/03/11 02:56:09;;;;;;;1.60;1.50;;;22.00;63.20;;;;;;6087978;28;88803;-70
2023/03/11 02:59:13;;;;;;;1.83;1.40;;;22.00;63.20;;;;;;6087599;28;89051;-70
2023/03/11 03:02:15;;;;;;;1.75;1.27;;;22.10;63.40;;;;;;6075131;28;88987;-70
2023/03/11 03:05:19;;;;;;;2.30;1.42;;;22.00;63.30;;;;;;6086880;28;90308;-70
2023/03/11 03:08:21;;;;;;;3.47;1.40;;;22.00;63.50;;;;;;6086184;28;88866;-70
2023/03/11 03:11:23;;;;;;;1.60;1.40;;;22.00;63.50;;;;;;6077497;28;89093;-71
2023/03/11 03:14:27;;;;;;;1.40;1.30;;;22.00;63.50;;;;;;6087026;28;89449;-71
2023/03/11 03:17:29;;;;;;;1.67;1.20;;;22.00;63.70;;;;;;6079258;28;89152;-71
2023/03/11 03:20:31;;;;;;;2.00;1.50;;;22.00;63.70;;;;;;6082339;28;89077;-71
2023/03/11 03:23:34;;;;;;;1.95;1.60;;;22.00;63.70;;;;;;6081435;28;89182;-70
2023/03/11 03:26:36;;;;;;;1.42;1.33;;;22.00;63.80;;;;;;6086139;28;88675;-71
2023/03/11 03:29:39;;;;;;;2.95;1.58;;;21.90;63.80;;;;;;6086137;28;89065;-70
2023/03/11 03:32:41;;;;;;;1.52;1.15;;;22.00;63.80;;;;;;6086406;28;89147;-71
2023/03/11 03:35:44;;;;;;;1.40;1.20;;;22.00;63.80;;;;;;6086894;28;90058;-71
2023/03/11 03:38:47;;;;;;;1.45;1.30;;;22.00;63.80;;;;;;6079523;28;89413;-71
2023/03/11 03:41:49;;;;;;;1.20;1.10;;;21.90;63.80;;;;;;6078115;28;89128;-72
2023/03/11 03:44:52;;;;;;;1.50;1.13;;;21.90;63.90;;;;;;6081008;28;89414;-71
2023/03/11 03:47:54;;;;;;;2.22;1.20;;;22.00;64.00;;;;;;6086037;28;89168;-71
2023/03/11 03:50:57;;;;;;;1.50;1.30;;;21.90;64.00;;;;;;6085840;28;89357;-70
2023/03/11 03:53:59;;;;;;;1.65;1.20;;;21.90;64.00;;;;;;6084922;28;89192;-70
2023/03/11 03:57:01;;;;;;;1.42;1.20;;;21.90;64.10;;;;;;6085856;28;88587;-71
2023/03/11 04:00:07;;;;;;;1.90;1.10;;;21.90;64.10;;;;;;6085345;28;89247;-70
2023/03/11 04:03:09;;;;;;;1.65;1.30;;;21.90;64.20;;;;;;6085296;28;89151;-70
2023/03/11 04:06:17;;;;;;;1.88;1.52;;;21.90;64.20;;;;;;6084817;28;90051;-71
2023/03/11 04:09:19;;;;;;;1.10;1.00;;;21.90;64.30;;;;;;6069786;28;89109;-70
2023/03/11 04:12:21;;;;;;;1.20;1.10;;;21.90;64.30;;;;;;6077515;28;89322;-71
2023/03/11 04:15:25;;;;;;;1.20;1.08;;;21.90;64.30;;;;;;6080040;28;89312;-70
2023/03/11 04:18:27;;;;;;;1.33;1.15;;;21.90;64.30;;;;;;6079317;28;89471;-70
2023/03/11 04:21:29;;;;;;;2.47;1.20;;;21.90;64.20;;;;;;6086032;28;89174;-70
2023/03/11 04:24:31;;;;;;;1.63;1.17;;;21.90;64.30;;;;;;6083747;28;89056;-69
2023/03/11 04:27:33;;;;;;;1.33;1.00;;;21.90;64.30;;;;;;6085512;28;88715;-70
2023/03/11 04:30:36;;;;;;;1.17;1.00;;;21.90;64.40;;;;;;6082659;28;89209;-69
2023/03/11 04:33:38;;;;;;;1.70;1.20;;;21.90;64.40;;;;;;6084664;28;89075;-70
2023/03/11 04:36:40;;;;;;;1.63;1.08;;;21.80;64.20;;;;;;6084236;28;88985;-70
2023/03/11 04:39:42;;;;;;;1.73;1.17;;;21.80;64.40;;;;;;6085353;28;89412;-70
2023/03/11 04:42:45;;;;;;;1.00;0.90;;;21.90;64.30;;;;;;6084924;28;89423;-70
2023/03/11 04:45:50;;;;;;;1.20;1.10;;;21.90;64.40;;;;;;6081442;28;89056;-69
2023/03/11 04:48:53;;;;;;;1.42;1.08;;;21.90;64.40;;;;;;6070558;28;89119;-70
2023/03/11 04:51:55;;;;;;;2.88;1.15;;;21.90;64.40;;;;;;6084915;28;87964;-70
2023/03/11 04:54:57;;;;;;;1.23;1.00;;;21.90;64.40;;;;;;6084968;28;89071;-70
2023/03/11 04:57:59;;;;;;;2.63;1.30;;;21.90;64.40;;;;;;6085297;28;88336;-70
2023/03/11 05:01:02;;;;;;;1.95;1.20;;;21.90;64.40;;;;;;6078385;28;89147;-70
2023/03/11 05:04:04;;;;;;;1.80;0.90;;;21.90;64.40;;;;;;6085653;28;89140;-70
2023/03/11 05:07:06;;;;;;;1.58;1.00;;;21.90;64.40;;;;;;6081894;28;88894;-70
2023/03/11 05:10:10;;;;;;;2.42;1.38;;;21.90;64.80;;;;;;6077474;28;89067;-70
2023/03/11 05:13:12;;;;;;;2.55;1.30;;;21.90;65.40;;;;;;6078754;28;89093;-71
2023/03/11 05:16:15;;;;;;;3.00;1.58;;;21.90;64.50;;;;;;6082742;28;89150;-70
2023/03/11 05:19:33;;;;;;;2.80;1.10;;;22.00;64.60;;;;;;6084535;28;89084;-71
2023/03/11 05:22:36;;;;;;;1.95;1.38;;;22.00;64.60;;;;;;6083227;28;90454;-69
2023/03/11 05:25:38;;;;;;;1.90;1.20;;;21.90;64.60;;;;;;6084387;28;89101;-71
2023/03/11 05:28:40;;;;;;;1.63;1.00;;;22.00;64.70;;;;;;6086284;28;88385;-71
2023/03/11 05:31:43;;;;;;;2.25;1.33;;;22.00;64.70;;;;;;6083689;28;89157;-70
2023/03/11 05:34:46;;;;;;;2.45;1.40;;;22.00;64.70;;;;;;6084662;28;88949;-71
2023/03/11 05:37:48;;;;;;;2.55;1.10;;;22.00;64.70;;;;;;6085275;28;90044;-70
2023/03/11 05:40:50;;;;;;;1.52;1.38;;;22.00;64.70;;;;;;6085031;28;93678;-70
2023/03/11 05:43:52;;;;;;;2.65;1.50;;;22.00;64.60;;;;;;6084434;28;89156;-71
2023/03/11 05:46:56;;;;;;;1.92;1.80;;;22.00;64.60;;;;;;6082787;28;89021;-71
2023/03/11 05:49:58;;;;;;;2.50;1.85;;;22.00;64.70;;;;;;6081568;28;88115;-70
2023/03/11 05:53:00;;;;;;;3.70;2.30;;;22.00;64.60;;;;;;6080408;28;89100;-71
2023/03/11 05:56:03;;;;;;;2.17;1.80;;;21.90;64.50;;;;;;6084465;28;89175;-71
2023/03/11 05:59:05;;;;;;;3.00;2.03;;;22.00;64.60;;;;;;6080685;28;88769;-70
2023/03/11 06:02:09;;;;;;;3.38;2.10;;;22.00;64.70;;;;;;6083302;28;89065;-70
2023/03/11 06:05:11;;;;;;;2.92;2.28;;;21.90;64.70;;;;;;6083376;28;89304;-70
2023/03/11 06:08:14;;;;;;;2.83;2.10;;;22.00;64.90;;;;;;6083760;28;89189;-70
2023/03/11 06:11:17;;;;;;;4.25;2.30;;;21.90;64.90;;;;;;6069014;28;89287;-70
2023/03/11 06:14:19;;;;;;;4.22;2.45;;;21.90;64.90;;;;;;6077704;28;89034;-70
2023/03/11 06:17:22;;;;;;;3.88;2.25;;;22.00;65.00;;;;;;6087712;28;90872;-70
2023/03/11 06:20:24;;;;;;;3.85;2.50;;;21.90;64.90;;;;;;6088309;28;89160;-71
2023/03/11 06:23:27;;;;;;;3.30;2.78;;;21.90;64.80;;;;;;6087706;28;89029;-70
2023/03/11 06:26:29;;;;;;;3.30;2.80;;;21.90;64.60;;;;;;6088188;28;89323;-70
2023/03/11 06:29:31;;;;;;;3.17;2.88;;;22.00;64.50;;;;;;6088606;28;88516;-70
2023/03/11 06:32:35;;;;;;;4.70;2.90;;;22.00;64.60;;;;;;6086842;28;88134;-71
2023/03/11 06:35:38;;;;;;;3.25;2.60;;;22.00;64.50;;;;;;6087868;28;89456;-70
2023/03/11 06:38:40;;;;;;;3.10;2.65;;;22.00;64.50;;;;;;6087610;28;90091;-70
2023/03/11 06:41:42;;;;;;;4.18;3.13;;;22.00;64.60;;;;;;6087655;28;87889;-70
2023/03/11 06:44:46;;;;;;;3.70;2.88;;;22.00;64.60;;;;;;6088510;28;89101;-70
2023/03/11 06:47:50;;;;;;;3.25;2.80;;;22.00;64.40;;;;;;6084332;28;89082;-70
2023/03/11 06:50:55;;;;;;;3.95;3.00;;;22.00;65.30;;;;;;6087208;28;89312;-71
2023/03/11 06:53:57;;;;;;;3.38;2.95;;;22.00;64.30;;;;;;6076252;28;89425;-69
2023/03/11 06:56:59;;;;;;;3.60;3.00;;;22.00;64.20;;;;;;6087240;28;89455;-70
2023/03/11 07:00:04;;;;;;;5.38;3.10;;;22.00;64.30;;;;;;6087241;28;88363;-70
2023/03/11 07:03:08;;;;;;;4.30;3.10;;;22.00;64.30;;;;;;6086908;28;89104;-71
2023/03/11 07:06:13;;;;;;;3.80;3.25;;;22.10;64.40;;;;;;6087361;28;89135;-71
2023/03/11 07:09:15;;;;;;;3.40;3.10;;;22.10;64.40;;;;;;6080773;28;90438;-70
2023/03/11 07:12:17;;;;;;;3.20;2.90;;;22.00;64.30;;;;;;6081455;28;89037;-71
2023/03/11 07:15:19;;;;;;;3.38;3.08;;;22.00;64.40;;;;;;6086702;28;89508;-70
2023/03/11 07:18:23;;;;;;;3.20;2.80;;;22.10;64.40;;;;;;6086717;28;89111;-71
2023/03/11 07:21:25;;;;;;;4.20;3.25;;;22.10;64.30;;;;;;6087975;28;89097;-70
2023/03/11 07:24:27;;;;;;;4.47;3.53;;;22.20;64.40;;;;;;6082411;28;89454;-70
2023/03/11 07:27:29;;;;;;;3.38;3.05;;;22.20;64.40;;;;;;6086594;28;89345;-70
2023/03/11 07:30:34;;;;;;;3.85;3.20;;;22.10;64.40;;;;;;6088634;28;88649;-70
2023/03/11 07:33:38;;;;;;;4.10;2.90;;;22.20;64.40;;;;;;6086911;28;89772;-70
2023/03/11 07:36:42;;;;;;;3.50;3.20;;;22.20;64.40;;;;;;6084452;28;89257;-70
2023/03/11 07:39:44;;;;;;;3.22;2.85;;;22.20;64.40;;;;;;6086480;28;88950;-70
2023/03/11 07:42:46;;;;;;;4.70;3.20;;;22.20;64.30;;;;;;6075885;28;89158;-71
2023/03/11 07:45:49;;;;;;;3.38;3.08;;;22.20;64.20;;;;;;6081202;28;87998;-70
2023/03/11 07:48:52;;;;;;;3.42;3.10;;;22.20;64.20;;;;;;6077539;28;89275;-71
2023/03/11 07:51:55;;;;;;;3.85;2.97;;;22.20;64.20;;;;;;6085146;28;89119;-71
2023/03/11 07:54:57;;;;;;;3.10;2.78;;;22.20;64.20;;;;;;6098790;28;89118;-71
2023/03/11 07:57:59;;;;;;;3.85;2.97;;;22.20;64.10;;;;;;6073881;28;90291;-71
2023/03/11 08:01:05;;;;;;;3.40;2.92;;;22.20;64.00;;;;;;6076288;28;88396;-71
2023/03/11 08:04:10;;;;;;;4.28;3.25;;;22.20;64.00;;;;;;6078522;28;89475;-71
2023/03/11 08:07:13;;;;;;;3.20;2.90;;;22.20;63.90;;;;;;6086022;28;87943;-70
2023/03/11 08:10:15;;;;;;;3.15;2.85;;;22.20;64.00;;;;;;6085010;28;90348;-70
2023/03/11 08:13:17;;;;;;;4.55;3.60;;;22.30;64.00;;;;;;6083480;28;89342;-70
2023/03/11 08:16:21;;;;;;;3.80;3.28;;;22.30;63.90;;;;;;6076022;28;89157;-70
2023/03/11 08:19:24;;;;;;;3.70;3.30;;;22.30;63.90;;;;;;6087115;28;89206;-70
2023/03/11 08:22:26;;;;;;;3.00;2.70;;;22.30;63.90;;;;;;6086356;28;89370;-71
2023/03/11 08:25:28;;;;;;;3.97;3.00;;;22.40;63.90;;;;;;6085954;28;89082;-71
2023/03/11 08:28:30;;;;;;;2.88;2.67;;;22.40;63.90;;;;;;6087063;28;88281;-70
2023/03/11 08:31:33;;;;;;;2.75;2.55;;;22.30;63.80;;;;;;6086038;28;88629;-71
2023/03/11 08:34:38;;;;;;;3.58;2.70;;;22.30;63.80;;;;;;6079486;28;88991;-69
2023/03/11 08:37:40;;;;;;;2.50;2.30;;;22.30;63.70;;;;;;6077615;28;89104;-68
2023/03/11 08:40:42;;;;;;;4.10;3.08;;;22.40;63.70;;;;;;6078712;28;90125;-68
2023/03/11 08:43:44;;;;;;;3.72;3.00;;;22.30;63.70;;;;;;6077028;28;89220;-69
2023/03/11 08:46:47;;;;;;;3.47;2.70;;;22.40;63.80;;;;;;6086186;28;89172;-69
2023/03/11 08:49:50;;;;;;;2.92;2.60;;;22.40;63.80;;;;;;6080591;28;89063;-68
2023/03/11 08:52:54;;;;;;;3.25;2.53;;;22.40;63.80;;;;;;6083205;28;90635;-69
2023/03/11 08:55:57;;;;;;;3.95;2.50;;;22.40;63.80;;;;;;6077945;28;89280;-68
2023/03/11 08:58:59;;;;;;;2.70;2.50;;;22.40;63.80;;;;;;6087959;28;90012;-68
2023/03/11 09:02:01;;;;;;;2.88;2.50;;;22.40;63.80;;;;;;6086711;28;88338;-68
2023/03/11 09:05:06;;;;;;;2.58;2.35;;;22.50;63.80;;;;;;6085186;28;89655;-68
2023/03/11 09:08:08;;;;;;;3.17;2.65;;;22.50;63.80;;;;;;6084664;28;89251;-70
2023/03/11 09:11:12;;;;;;;3.33;2.60;;;22.40;63.80;;;;;;6082604;28;90157;-68
2023/03/11 09:14:14;;;;;;;2.47;2.28;;;22.50;63.90;;;;;;6080625;28;89391;-68
2023/03/11 09:17:16;;;;;;;2.95;2.47;;;22.50;64.00;;;;;;6084308;28;88804;-69
2023/03/11 09:20:20;;;;;;;2.35;2.03;;;22.50;64.00;;;;;;6083597;28;89544;-68
2023/03/11 09:23:22;;;;;;;3.08;2.53;;;22.50;64.00;;;;;;6084383;28;89112;-67
2023/03/11 09:26:24;;;;;;;2.45;2.25;;;22.50;64.00;;;;;;6084544;28;89279;-67
2023/03/11 09:29:26;;;;;;;3.20;2.10;;;22.60;64.10;;;;;;6074672;28;89045;-67
2023/03/11 09:32:28;;;;;;;2.55;2.30;;;22.60;64.20;;;;;;6084591;28;88632;-67
2023/03/11 09:35:31;;;;;;;2.22;2.00;;;22.60;64.10;;;;;;6085177;28;88086;-67
2023/03/11 09:38:33;;;;;;;2.45;2.03;;;22.60;64.10;;;;;;6078677;28;89133;-66
2023/03/11 09:41:42;;;;;;;2.85;2.30;;;22.60;64.10;;;;;;6083937;28;90122;-67
2023/03/11 09:44:52;;;;;;;2.80;2.35;;;22.60;64.00;;;;;;6079189;28;89413;-67
2023/03/11 09:48:08;;;;;;;2.33;2.13;;;22.60;64.00;;;;;;6078902;28;89090;-67
2023/03/11 09:51:19;;;;;;;2.25;2.05;;;22.60;64.00;;;;;;6074984;28;87975;-68
2023/03/11 09:54:22;;;;;;;2.10;1.90;;;22.60;64.00;;;;;;6081416;28;88068;-67
2023/03/11 09:57:28;;;;;;;2.38;1.90;;;22.70;64.10;;;;;;6082129;28;88117;-67
2023/03/11 10:00:31;;;;;;;2.15;1.92;;;22.70;64.10;;;;;;6082484;28;89118;-67
2023/03/11 10:03:35;;;;;;;2.45;2.08;;;22.60;64.00;;;;;;6074537;28;88706;-68
2023/03/11 10:06:42;;;;;;;1.80;1.70;;;22.70;64.20;;;;;;6084213;28;89095;-71
2023/03/11 10:09:50;;;;;;;2.25;1.80;;;22.70;63.40;;;;;;6083907;28;89064;-68
2023/03/11 10:13:01;;;;;;;3.70;1.80;;;22.70;62.00;;;;;;6080587;28;89939;-68
2023/03/11 10:16:14;;;;;;;2.13;1.50;;;22.70;59.60;;;;;;6083538;28;89049;-67
2023/03/11 10:19:22;;;;;;;1.75;1.30;;;22.70;57.90;;;;;;6084632;28;89328;-67
2023/03/11 10:22:31;;;;;;;1.48;1.20;;;22.70;56.60;;;;;;6084139;28;89456;-67
2023/03/11 10:25:42;;;;;;;1.52;1.05;;;22.70;56.00;;;;;;6085128;28;89695;-68
2023/03/11 10:28:48;;;;;;;1.83;1.10;;;22.70;54.50;;;;;;6084274;28;89753;-67
2023/03/11 10:31:56;;;;;;;1.75;1.05;;;22.60;52.60;;;;;;6084272;28;89143;-68
2023/03/11 10:35:04;;;;;;;1.00;0.90;;;22.60;51.80;;;;;;6084615;28;88691;-68
2023/03/11 10:38:14;;;;;;;1.02;0.90;;;22.60;51.10;;;;;;6083220;28;89486;-69
2023/03/11 10:41:20;;;;;;;1.30;0.80;;;22.50;50.70;;;;;;6084195;28;89178;-68
2023/03/11 10:44:27;;;;;;;1.23;0.90;;;22.50;49.90;;;;;;6082333;28;90359;-68
2023/03/11 10:47:29;;;;;;;1.77;0.98;;;22.40;49.80;;;;;;6083836;28;89454;-67
2023/03/11 10:50:35;;;;;;;1.30;1.05;;;22.40;49.90;;;;;;6081221;28;89204;-68
2023/03/11 10:53:44;;;;;;;2.17;1.00;;;22.40;49.90;;;;;;6083741;28;89100;-67
2023/03/11 10:56:53;;;;;;;1.67;1.10;;;22.40;49.80;;;;;;6084071;28;89020;-67
2023/03/11 10:59:57;;;;;;;1.80;1.10;;;22.40;49.40;;;;;;6084967;28;89125;-67
2023/03/11 11:03:00;;;;;;;2.58;1.13;;;22.30;48.90;;;;;;6086594;28;89168;-68
2023/03/11 11:06:05;;;;;;;1.35;1.08;;;22.30;48.80;;;;;;6087727;28;88778;-68
2023/03/11 11:09:19;;;;;;;1.35;1.02;;;22.30;49.20;;;;;;6087402;28;88471;-68
2023/03/11 11:12:21;;;;;;;1.10;0.90;;;22.20;47.90;;;;;;6087793;28;89147;-67
2023/03/11 11:15:26;;;;;;;1.80;1.00;;;22.30;48.80;;;;;;6068221;28;90179;-67
2023/03/11 11:18:32;;;;;;;1.13;1.00;;;22.30;46.90;;;;;;6078854;28;92222;-67
2023/03/11 11:21:36;;;;;;;1.52;1.13;;;22.20;46.80;;;;;;6085922;28;89173;-67
2023/03/11 11:24:44;;;;;;;1.55;1.00;;;22.20;47.30;;;;;;6083243;28;89197;-67
2023/03/11 11:27:54;;;;;;;1.52;1.13;;;22.20;47.50;;;;;;6080205;28;89214;-67
2023/03/11 11:30:59;;;;;;;1.83;1.17;;;22.20;48.30;;;;;;6086516;28;89163;-67
2023/03/11 11:34:01;;;;;;;1.67;1.10;;;22.10;48.20;;;;;;6080889;28;89098;-67
2023/03/11 11:37:05;;;;;;;1.10;0.90;;;22.10;48.60;;;;;;6084526;28;87295;-67
2023/03/11 11:40:27;;;;;;;1.35;0.93;;;22.10;49.30;;;;;;6082779;28;89152;-67
2023/03/11 11:43:52;;;;;;;1.63;1.10;;;22.10;50.30;;;;;;6078527;28;89147;-67
2023/03/11 11:46:58;;;;;;;1.40;1.05;;;22.10;51.00;;;;;;6079324;28;90430;-67
2023/03/11 11:50:03;;;;;;;1.95;1.02;;;22.10;51.50;;;;;;6073200;28;87969;-68
2023/03/11 11:53:23;;;;;;;2.00;1.10;;;22.20;52.10;;;;;;6083003;28;89639;-68
2023/03/11 11:56:27;;;;;;;3.38;0.90;;;22.20;52.90;;;;;;6077661;28;89057;-68
2023/03/11 11:59:31;;;;;;;1.73;1.17;;;22.20;53.10;;;;;;6081629;28;89078;-68
2023/03/11 12:02:46;;;;;;;1.45;1.10;;;22.10;53.40;;;;;;6081503;28;89119;-68
2023/03/11 12:05:56;;;;;;;1.35;1.15;;;22.20;53.90;;;;;;6085173;28;88951;-68
2023/03/11 12:09:07;;;;;;;1.48;1.13;;;22.20;54.10;;;;;;6081608;28;88442;-68
2023/03/11 12:12:21;;;;;;;2.33;1.20;;;22.20;54.50;;;;;;6075358;28;89270;-68
2023/03/11 12:15:29;;;;;;;1.35;1.00;;;22.20;54.80;;;;;;6079799;28;89161;-68
2023/03/11 12:18:35;;;;;;;1.63;1.20;;;22.20;55.00;;;;;;6084375;28;90572;-68
2023/03/11 12:22:03;;;;;;;1.40;0.90;;;22.20;55.00;;;;;;6086511;28;89089;-69
2023/03/11 12:25:33;;;;;;;2.15;0.98;;;22.20;55.30;;;;;;6086066;28;89136;-68
2023/03/11 12:28:44;;;;;;;1.20;1.00;;;22.20;55.60;;;;;;6062354;28;89126;-68
2023/03/11 12:31:47;;;;;;;1.67;0.90;;;22.20;55.80;;;;;;6086093;28;89160;-68
2023/03/11 12:34:49;;;;;;;1.98;0.90;;;22.20;55.90;;;;;;6085796;28;88059;-68
2023/03/11 12:38:07;;;;;;;1.10;0.95;;;22.20;56.10;;;;;;6084421;28;89085;-68
2023/03/11 12:41:28;;;;;;;1.00;0.82;;;22.20;56.30;;;;;;6086007;28;89070;-68
2023/03/11 12:44:31;;;;;;;0.98;0.88;;;22.20;56.40;;;;;;6085591;28;89571;-68
2023/03/11 12:47:33;;;;;;;1.45;0.95;;;22.20;56.50;;;;;;6083787;28;89111;-68
2023/03/11 12:50:42;;;;;;;1.13;1.00;;;22.20;56.70;;;;;;6081749;28;90016;-68
2023/03/11 12:53:46;;;;;;;2.10;1.10;;;22.20;56.80;;;;;;6078539;28;90959;-68
2023/03/11 12:56:54;;;;;;;1.20;1.00;;;22.20;56.90;;;;;;6085319;28;89351;-68
2023/03/11 13:00:21;;;;;;;1.20;1.00;;;22.20;57.00;;;;;;6072125;28;89017;-68
2023/03/11 13:03:49;;;;;;;1.15;1.00;;;22.20;57.10;;;;;;6085238;28;88366;-68
2023/03/11 13:07:27;;;;;;;1.27;1.00;;;22.20;57.30;;;;;;6075536;28;89470;-68
2023/03/11 13:10:40;;;;;;;1.42;0.90;;;22.20;57.40;;;;;;6077799;28;89080;-68
2023/03/11 13:13:43;;;;;;;1.38;1.08;;;22.20;57.50;;;;;;6085715;28;88512;-67
2023/03/11 13:16:47;;;;;;;1.80;1.15;;;22.20;57.60;;;;;;6084541;28;87247;-68
2023/03/11 13:19:52;;;;;;;2.35;1.23;;;22.20;57.70;;;;;;6085576;28;88502;-68
2023/03/11 13:23:23;;;;;;;1.88;1.23;;;22.30;57.80;;;;;;6084226;28;90159;-67
2023/03/11 13:26:40;;;;;;;1.00;0.90;;;22.30;58.00;;;;;;6085103;28;89105;-68
2023/03/11 13:29:58;;;;;;;1.92;1.00;;;22.20;58.00;;;;;;6084740;28;89121;-68
2023/03/11 13:33:24;;;;;;;1.30;1.00;;;22.20;58.10;;;;;;6084628;28;89252;-68
2023/03/11 13:36:42;;;;;;;1.05;0.90;;;22.30;58.90;;;;;;6084513;28;87995;-68
2023/03/11 13:39:53;;;;;;;1.10;1.00;;;22.30;59.00;;;;;;6082306;28;87915;-68
2023/03/11 13:43:02;;;;;;;0.95;0.88;;;22.30;58.30;;;;;;6082051;28;89274;-68
2023/03/11 13:46:08;;;;;;;1.05;0.90;;;22.30;58.40;;;;;;6084140;28;87722;-68
2023/03/11 13:49:26;;;;;;;1.15;0.90;;;22.30;58.50;;;;;;6083921;28;89298;-68
2023/03/11 13:52:32;;;;;;;1.33;0.90;;;22.30;58.60;;;;;;6083725;28;89475;-68
2023/03/11 13:55:36;;;;;;;2.33;1.05;;;22.30;58.70;;;;;;6083954;28;90146;-68
2023/03/11 13:58:39;;;;;;;1.02;0.90;;;22.30;58.70;;;;;;6084047;28;88893;-68
2023/03/11 14:01:47;;;;;;;1.00;0.90;;;22.30;58.70;;;;;;6082741;28;88271;-68
2023/03/11 14:04:55;;;;;;;1.45;1.00;;;22.30;58.80;;;;;;6084532;28;89198;-68
2023/03/11 14:08:12;;;;;;;1.02;0.88;;;22.30;58.90;;;;;;6083829;28;89355;-68
2023/03/11 14:11:17;;;;;;;0.98;0.90;;;22.30;59.00;;;;;;6083742;28;89310;-68
2023/03/11 14:14:34;;;;;;;1.25;0.82;;;22.30;59.00;;;;;;6078192;28;89077;-68
2023/03/11 14:17:37;;;;;;;1.75;0.90;;;22.30;59.10;;;;;;6084282;28;87981;-68
2023/03/11 14:20:41;;;;;;;1.35;0.98;;;22.30;59.10;;;;;;6084045;28;88048;-68
2023/03/11 14:23:46;;;;;;;1.00;0.90;;;22.30;59.10;;;;;;6081453;28;87746;-68
2023/03/11 14:26:48;;;;;;;1.45;1.02;;;22.30;59.20;;;;;;6072812;28;89121;-68
2023/03/11 14:29:50;;;;;;;4.00;1.13;;;22.30;59.30;;;;;;6082787;28;89026;-68
2023/03/11 14:32:58;;;;;;;2.97;1.17;;;22.30;59.40;;;;;;6081227;28;89174;-68
2023/03/11 14:36:04;;;;;;;2.90;1.25;;;22.30;59.50;;;;;;6083957;28;89069;-68
2023/03/11 14:39:21;;;;;;;3.65;1.70;;;22.40;60.00;;;;;;6087195;28;89147;-68
2023/03/11 14:42:27;;;;;;;3.35;1.23;;;22.40;60.20;;;;;;6087136;28;89051;-68
2023/03/11 14:45:32;;;;;;;3.10;1.15;;;22.40;60.30;;;;;;6088499;28;88036;-68
2023/03/11 14:48:38;;;;;;;3.05;1.10;;;22.40;60.20;;;;;;6085811;28;88294;-68
2023/03/11 14:51:43;;;;;;;2.35;1.17;;;22.30;60.10;;;;;;6071415;28;88475;-68
2023/03/11 14:54:48;;;;;;;4.55;1.80;;;22.30;60.30;;;;;;6086545;28;87998;-68
2023/03/11 14:57:55;;;;;;;3.65;1.17;;;22.30;60.40;;;;;;6084995;28;90029;-68
2023/03/11 15:01:01;;;;;;;4.38;1.40;;;22.30;60.60;;;;;;6082279;28;89492;-68
2023/03/11 15:04:07;;;;;;;2.88;1.33;;;22.30;60.80;;;;;;6075653;28;88973;-68
2023/03/11 15:07:11;;;;;;;3.67;1.30;;;22.30;61.00;;;;;;6087961;28;89346;-68
2023/03/11 15:10:15;;;;;;;1.40;1.00;;;22.40;61.30;;;;;;6084814;28;88023;-68
2023/03/11 15:13:17;;;;;;;5.57;1.20;;;22.40;61.50;;;;;;6079696;28;88124;-68
2023/03/11 15:16:31;;;;;;;4.03;1.45;;;22.40;61.60;;;;;;6085677;28;89453;-68
2023/03/11 15:19:34;;;;;;;4.65;1.30;;;22.40;61.80;;;;;;6086824;28;87265;-68
2023/03/11 15:22:39;;;;;;;3.00;1.20;;;22.40;62.00;;;;;;6087856;28;88026;-68
2023/03/11 15:25:49;;;;;;;2.60;1.10;;;22.30;62.10;;;;;;6086110;28;89229;-68
2023/03/11 15:28:58;;;;;;;2.58;1.13;;;22.40;62.30;;;;;;6086031;28;90682;-68
2023/03/11 15:32:01;;;;;;;2.28;1.20;;;22.40;62.40;;;;;;6080749;28;88252;-68
2023/03/11 15:35:13;;;;;;;2.85;1.20;;;22.40;62.50;;;;;;6082150;28;89375;-69
2023/03/11 15:38:22;;;;;;;3.75;1.40;;;22.40;62.70;;;;;;6086770;28;89242;-68
2023/03/11 15:41:25;;;;;;;2.47;1.17;;;22.40;62.80;;;;;;6085874;28;87821;-68
2023/03/11 15:44:31;;;;;;;1.83;1.10;;;22.40;62.90;;;;;;6074430;28;89108;-68
2023/03/11 15:47:34;;;;;;;3.67;1.20;;;22.40;63.00;;;;;;6086051;28;88335;-68
2023/03/11 15:50:39;;;;;;;2.05;1.15;;;22.40;63.20;;;;;;6081167;28;87739;-68
2023/03/11 15:53:44;;;;;;;1.65;1.20;;;22.40;63.20;;;;;;6084180;28;89035;-68
2023/03/11 15:56:47;;;;;;;3.00;1.20;;;22.40;63.30;;;;;;6085024;28;88078;-68
2023/03/11 15:59:51;;;;;;;2.47;1.45;;;22.40;63.30;;;;;;6079479;28;90016;-68
2023/03/11 16:02:53;;;;;;;4.05;1.00;;;22.40;63.40;;;;;;6085215;28;88241;-68
2023/03/11 16:05:56;;;;;;;2.15;1.20;;;22.40;63.50;;;;;;6086441;28;88994;-68